Riviera Beach, FL (33404)

10:56 AM EST on February 14, 2016 (GMT -0500)
Singer Island | | Change Station
CLOSE
Current Station
Personal Weather Station
Location: Singer Island, FL
Elevation: 23 ft
Nearby Weather Stations

Elev 23 ft 26.79 °N, 80.04 °W | Updated 12 minutes ago

Partly Cloudy
Partly Cloudy
68.9 °F
Feels Like 68.9 °F
N
5.1
Wind Variable Wind from North

Today
High -- | Low -- °F
--% Chance of Precip.
Yesterday
High -- | Low -- °F
Precip. -- in
Pressure 30.27 in
Visibility 10.0 miles
Clouds Mostly Cloudy 4700 ft
Dew Point 54 °F
Humidity 59%
Rainfall Not available.
Snow Depth Not available.
6:57 AM 6:11 PM
Waxing Crescent, 43% visible
METAR KPBI 141553Z 08013KT 10SM BKN047 21/10 A3027 RMK AO2 SLP248 T02060100 $
Pressure 30.27 in
Visibility 10.0 miles
Clouds Mostly Cloudy 4700 ft
Dew Point 54 °F
Humidity 59%
Rainfall Not available.
Snow Depth Not available.
6:57 AM 6:11 PM
Waxing Crescent, 43% visible
METAR KPBI 141553Z 08013KT 10SM BKN047 21/10 A3027 RMK AO2 SLP248 T02060100 $

10-Day Weather Forecast

Almanac

Astronomy

Feb. 14, 2016 Rise Set
Actual Time
Civil Twilight
Nautical Twilight
Astronomical Twilight
Moon
Length of Visible Light
Length of Day
Tomorrow will be .
, % of the Moon is Illuminated

Today's Extremes

State Highs State Lows

Community

WunderPhotos

Upload Photos

1,892,802 photos uploaded!

WunderBlog® & News

Nearby

Air Quality

  Air Quality AQ Index Pollutant
Not available.

Snow Depth

Station Depth Elevation

Earthquake Activity

City Distance Mag. Time & Date
Minimum magnitude displayed is 2.5.

Coastal Water Temperatures

Place Temperature

Stations

Nearby Weather Stations

Station Location Temp. Windchill Dew Point Humidity Wind Precip. Elev Updated Type
                   

Watches & Warnings

There are currently no watches in effect.